CheckWX is a tool to help pilots better visualize weather data.  It is not intended as a substitute for an official pre-flight weather briefing.

06:56:42 UTC

KFCH METAR
Fresno Chandler Executive Airport
Fresno, California, USA
Current

22 mins ago

KFCH 210635Z AUTO 30008KT 10SM CLR 14/09 A2997 RMK A01
Observed
May-21 @ 06:35 UTC
Wind
  • 300° at 8 KTS
Visibility
10 SM
Flight Rules
VFR
Cloud Levels
  • Clear skies
Temperature
14°C / 57°F
Dewpoint
C / 48°F
Humidity
72%
Altimeter
29.97" Hg
Pressure
1014.92 hPa
Previous

42 mins ago

KFCH 210615Z AUTO 31009KT 10SM 14/09 A2998 RMK A01
Observed
May-21 @ 06:15 UTC
Wind
  • 310° at 9 KTS
Visibility
10 SM
Temperature
14°C / 57°F
Dewpoint
C / 48°F
Humidity
72%
Altimeter
29.98" Hg
Pressure
1015.22 hPa
Previous

1 hour ago

KFCH 210555Z AUTO 31010KT 15/09 A2998 RMK A01
Observed
May-21 @ 05:55 UTC
Wind
  • 310° at 10 KTS
Visibility
Temperature
15°C / 59°F
Dewpoint
C / 48°F
Humidity
68%
Altimeter
29.98" Hg
Pressure
1015.22 hPa